Time;durP1;ratioP1;P1;durP2;ratioP2;P2;SDS_P1;SDS_P2;PMS_P1;PMS_P2;Temp;Humidity;BMP_temperature;BMP_pressure;BME280_temperature;BME280_humidity;BME280_pressure;Samples;Min_cycle;Max_cycle;Signal;HPM_P1;HPM_P2
2023/05/02 00:01:25;;;;;;;8.95;4.40;;;;;;;;;;10091249;23;20048;-92
2023/05/02 00:05:31;;;;;;;10.38;3.95;;;;;;;;;;10066688;23;20042;-91
2023/05/02 00:09:35;;;;;;;14.50;4.70;;;;;;;;;;10066801;23;20347;-91
2023/05/02 00:13:42;;;;;;;10.38;4.63;;;;;;;;;;10091809;23;20351;-91
2023/05/02 00:17:46;;;;;;;14.50;5.07;;;;;;;;;;10065705;23;20085;-89
2023/05/02 00:21:52;;;;;;;9.35;3.90;;;;;;;;;;10091433;23;20023;-91
2023/05/02 00:25:55;;;;;;;12.70;4.07;;;;;;;;;;10066274;23;20110;-89
2023/05/02 00:30:02;;;;;;;9.80;4.05;;;;;;;;;;10065359;23;20539;-90
2023/05/02 00:34:07;;;;;;;8.88;3.58;;;;;;;;;;10065750;23;20416;-90
2023/05/02 00:38:13;;;;;;;9.82;4.13;;;;;;;;;;10065603;23;20030;-92
2023/05/02 00:42:16;;;;;;;7.65;3.60;;;;;;;;;;10109007;23;20018;-91
2023/05/02 00:46:30;;;;;;;9.40;4.10;;;;;;;;;;10094080;23;20033;-91
2023/05/02 00:50:34;;;;;;;6.07;3.40;;;;;;;;;;10092293;23;20440;-90
2023/05/02 00:54:47;;;;;;;9.88;3.30;;;;;;;;;;10092615;23;20046;-91
2023/05/02 00:59:01;;;;;;;;;;;;;;;;;;;;;
2023/05/02 01:03:28;;;;;;;6.57;3.60;;;;;;;;;;10094778;23;20026;-90
2023/05/02 01:08:18;;;;;;;9.77;3.80;;;;;;;;;;10110306;23;20018;-89
2023/05/02 01:12:41;;;;;;;8.48;3.40;;;;;;;;;;10091144;23;20037;-89
2023/05/02 01:16:47;;;;;;;12.27;3.50;;;;;;;;;;10093688;23;20022;-90
2023/05/02 01:21:07;;;;;;;7.10;3.63;;;;;;;;;;10109602;23;20070;-90
2023/05/02 01:25:20;;;;;;;9.63;3.85;;;;;;;;;;10093256;23;20026;-88
2023/05/02 01:29:29;;;;;;;8.30;3.65;;;;;;;;;;10093475;23;20034;-90
2023/05/02 01:33:35;;;;;;;9.20;3.55;;;;;;;;;;10110119;23;20026;-88
2023/05/02 01:37:40;;;;;;;7.68;4.05;;;;;;;;;;10110106;23;20023;-92
2023/05/02 01:41:43;;;;;;;8.52;4.13;;;;;;;;;;10093644;23;20343;-90
2023/05/02 01:45:50;;;;;;;7.95;3.78;;;;;;;;;;10093973;23;20166;-90
2023/05/02 01:49:53;;;;;;;11.13;3.70;;;;;;;;;;10110533;23;20097;-91
2023/05/02 01:54:13;;;;;;;9.98;4.10;;;;;;;;;;10068314;23;20029;-91
2023/05/02 01:58:29;;;;;;;7.43;4.00;;;;;;;;;;10110467;23;20038;-91
2023/05/02 02:02:36;;;;;;;6.32;2.80;;;;;;;;;;10093433;23;20030;-91
2023/05/02 02:06:39;;;;;;;6.55;3.05;;;;;;;;;;10093508;23;20026;-91
2023/05/02 02:10:51;;;;;;;7.97;4.07;;;;;;;;;;10093572;23;20140;-89
2023/05/02 02:15:00;;;;;;;7.33;3.17;;;;;;;;;;10093234;23;20022;-90
2023/05/02 02:19:08;;;;;;;7.53;3.60;;;;;;;;;;10109249;23;20266;-89
2023/05/02 02:23:14;;;;;;;6.65;3.28;;;;;;;;;;10093049;23;20102;-89
2023/05/02 02:27:20;;;;;;;5.32;3.33;;;;;;;;;;10067670;23;20467;-89
2023/05/02 02:31:24;;;;;;;7.50;3.60;;;;;;;;;;10108848;23;20096;-93
2023/05/02 02:35:36;;;;;;;8.35;3.78;;;;;;;;;;10092980;23;20024;-90
2023/05/02 02:39:47;;;;;;;11.63;3.77;;;;;;;;;;10109321;23;20371;-89
2023/05/02 02:44:00;;;;;;;9.38;3.55;;;;;;;;;;10092061;23;20333;-90
2023/05/02 02:48:12;;;;;;;6.90;3.70;;;;;;;;;;10108469;23;20093;-90
2023/05/02 02:52:22;;;;;;;10.88;4.25;;;;;;;;;;10104508;23;20033;-91
2023/05/02 02:56:30;;;;;;;24.08;5.38;;;;;;;;;;10092408;23;20062;-90
2023/05/02 03:00:34;;;;;;;10.35;3.72;;;;;;;;;;10091367;23;20105;-90
2023/05/02 03:04:40;;;;;;;7.85;3.60;;;;;;;;;;10091968;23;20348;-89
2023/05/02 03:08:45;;;;;;;6.43;3.28;;;;;;;;;;10067204;23;20351;-89
2023/05/02 03:12:48;;;;;;;6.95;4.00;;;;;;;;;;10092668;23;20046;-89
2023/05/02 03:16:52;;;;;;;6.90;3.58;;;;;;;;;;10093941;23;20093;-91
2023/05/02 03:20:55;;;;;;;7.28;3.63;;;;;;;;;;10092953;23;20022;-92
2023/05/02 03:25:02;;;;;;;12.32;4.07;;;;;;;;;;10093368;23;20022;-92
2023/05/02 03:29:05;;;;;;;7.07;3.40;;;;;;;;;;10092542;23;20367;-90
2023/05/02 03:33:08;;;;;;;6.93;3.50;;;;;;;;;;10091583;23;20081;-89
2023/05/02 03:37:12;;;;;;;7.78;3.75;;;;;;;;;;10091530;23;20097;-89
2023/05/02 03:41:17;;;;;;;7.03;3.25;;;;;;;;;;10066594;23;20324;-90
2023/05/02 03:45:20;;;;;;;7.78;3.50;;;;;;;;;;10066861;23;20031;-91
2023/05/02 03:49:23;;;;;;;10.00;4.22;;;;;;;;;;10092379;23;20018;-91
2023/05/02 03:53:28;;;;;;;7.68;4.43;;;;;;;;;;10091579;23;20350;-90
2023/05/02 03:57:32;;;;;;;12.02;5.28;;;;;;;;;;10091511;23;20031;-90
2023/05/02 04:01:35;;;;;;;8.88;4.53;;;;;;;;;;10090966;23;20527;-90
2023/05/02 04:05:38;;;;;;;10.20;3.95;;;;;;;;;;10091579;23;20347;-90
2023/05/02 04:09:47;;;;;;;10.50;3.95;;;;;;;;;;10091320;23;20045;-90
2023/05/02 04:13:52;;;;;;;6.82;3.55;;;;;;;;;;10090710;23;20030;-89
2023/05/02 04:18:10;;;;;;;6.68;3.10;;;;;;;;;;10086386;23;20101;-89
2023/05/02 04:22:13;;;;;;;7.07;3.83;;;;;;;;;;10065016;23;20026;-89
2023/05/02 04:26:16;;;;;;;8.75;3.50;;;;;;;;;;10091714;23;20023;-91
2023/05/02 04:30:21;;;;;;;8.27;4.25;;;;;;;;;;10093763;23;20022;-90
2023/05/02 04:34:28;;;;;;;8.82;3.53;;;;;;;;;;10097479;23;20335;-91
2023/05/02 04:38:31;;;;;;;8.60;4.10;;;;;;;;;;10113198;23;20547;-90
2023/05/02 04:42:34;;;;;;;8.45;4.25;;;;;;;;;;10096388;23;20018;-92
2023/05/02 04:46:41;;;;;;;7.50;3.38;;;;;;;;;;10096398;23;20018;-92
2023/05/02 04:50:46;;;;;;;5.50;3.33;;;;;;;;;;10096851;23;20023;-90
2023/05/02 04:54:51;;;;;;;8.68;3.60;;;;;;;;;;10096407;23;20018;-89
2023/05/02 04:58:54;;;;;;;7.95;3.65;;;;;;;;;;10099011;23;20018;-90
2023/05/02 05:02:59;;;;;;;7.63;3.75;;;;;;;;;;10096872;23;20037;-90
2023/05/02 05:07:02;;;;;;;7.22;3.47;;;;;;;;;;10097275;23;20049;-91
2023/05/02 05:11:05;;;;;;;6.90;3.60;;;;;;;;;;10096994;23;20026;-92
2023/05/02 05:15:10;;;;;;;6.43;3.55;;;;;;;;;;10096910;23;20022;-91
2023/05/02 05:19:14;;;;;;;7.40;3.60;;;;;;;;;;10111982;23;20132;-91
2023/05/02 05:23:20;;;;;;;8.45;3.80;;;;;;;;;;10096104;23;20022;-93
2023/05/02 05:27:23;;;;;;;7.90;3.80;;;;;;;;;;10070476;23;20026;-91
2023/05/02 05:31:26;;;;;;;8.57;3.95;;;;;;;;;;10096551;23;20470;-92
2023/05/02 05:35:31;;;;;;;6.95;3.60;;;;;;;;;;10096571;23;20073;-91
2023/05/02 05:39:34;;;;;;;6.63;3.25;;;;;;;;;;10071551;23;20022;-91
2023/05/02 05:43:38;;;;;;;7.20;3.72;;;;;;;;;;10089438;23;20018;-88
2023/05/02 05:47:42;;;;;;;6.15;3.22;;;;;;;;;;10090166;23;20022;-88
2023/05/02 05:51:47;;;;;;;5.15;3.20;;;;;;;;;;10091522;23;20093;-89
2023/05/02 05:55:49;;;;;;;4.53;3.08;;;;;;;;;;10090953;23;20355;-90
2023/05/02 05:59:53;;;;;;;5.80;3.00;;;;;;;;;;10066822;23;20034;-88
2023/05/02 06:03:55;;;;;;;6.03;3.00;;;;;;;;;;10108368;23;20038;-88
2023/05/02 06:08:00;;;;;;;4.88;2.90;;;;;;;;;;10092235;23;20022;-88
2023/05/02 06:12:03;;;;;;;10.90;3.08;;;;;;;;;;10090473;23;20607;-87
2023/05/02 06:16:06;;;;;;;6.10;3.00;;;;;;;;;;10065564;23;20066;-88
2023/05/02 06:20:10;;;;;;;6.78;3.05;;;;;;;;;;10091349;23;20053;-90
2023/05/02 06:24:14;;;;;;;7.68;3.28;;;;;;;;;;10093245;23;20019;-90
2023/05/02 06:28:17;;;;;;;5.70;2.70;;;;;;;;;;10092773;23;20029;-89
2023/05/02 06:32:20;;;;;;;5.57;2.80;;;;;;;;;;10090524;23;20122;-88
2023/05/02 06:36:23;;;;;;;6.18;2.95;;;;;;;;;;10088688;23;20069;-90
2023/05/02 06:40:27;;;;;;;7.38;3.60;;;;;;;;;;10086680;23;20081;-90
2023/05/02 06:44:30;;;;;;;6.97;3.20;;;;;;;;;;10061614;23;20026;-88
2023/05/02 06:48:33;;;;;;;6.43;2.97;;;;;;;;;;10087030;23;20097;-90
2023/05/02 06:52:36;;;;;;;5.82;2.78;;;;;;;;;;10087361;23;20154;-87
2023/05/02 06:56:42;;;;;;;7.53;2.85;;;;;;;;;;10087698;23;20451;-92
2023/05/02 07:00:45;;;;;;;5.68;3.00;;;;;;;;;;10101207;23;20026;-92
2023/05/02 07:04:50;;;;;;;4.35;2.38;;;;;;;;;;10088769;23;20026;-91
2023/05/02 07:08:54;;;;;;;4.40;2.70;;;;;;;;;;10084981;23;20041;-89
2023/05/02 07:13:04;;;;;;;4.25;2.63;;;;;;;;;;10101852;23;20052;-90
2023/05/02 07:17:12;;;;;;;4.30;2.22;;;;;;;;;;10100748;23;20058;-89
2023/05/02 07:21:23;;;;;;;5.43;2.42;;;;;;;;;;10060438;23;20077;-87
2023/05/02 07:25:26;;;;;;;4.03;2.08;;;;;;;;;;10085472;23;20041;-87
2023/05/02 07:29:31;;;;;;;5.85;2.28;;;;;;;;;;10086035;23;20469;-88
2023/05/02 07:33:37;;;;;;;3.10;2.08;;;;;;;;;;10088375;23;20023;-89
2023/05/02 07:37:40;;;;;;;4.43;1.98;;;;;;;;;;10106576;23;20025;-89
2023/05/02 07:41:43;;;;;;;4.88;2.33;;;;;;;;;;10089853;23;20026;-88
2023/05/02 07:45:47;;;;;;;2.83;1.85;;;;;;;;;;10090671;23;20014;-86
2023/05/02 07:49:51;;;;;;;3.97;2.15;;;;;;;;;;10088657;23;20018;-86
2023/05/02 07:53:57;;;;;;;4.40;2.38;;;;;;;;;;10092777;23;20341;-90
2023/05/02 07:58:00;;;;;;;5.68;2.47;;;;;;;;;;10107192;23;20029;-94
2023/05/02 08:02:05;;;;;;;4.68;2.28;;;;;;;;;;10092737;23;20045;-93
2023/05/02 08:06:12;;;;;;;4.70;2.40;;;;;;;;;;10091986;23;20022;-94
2023/05/02 08:10:27;;;;;;;4.32;2.28;;;;;;;;;;10092669;23;20022;-92
2023/05/02 08:14:32;;;;;;;4.07;2.42;;;;;;;;;;10064366;23;20026;-95
2023/05/02 08:18:40;;;;;;;3.97;2.33;;;;;;;;;;10105347;23;20027;-92
2023/05/02 08:23:00;;;;;;;5.03;2.25;;;;;;;;;;10107479;23;20014;-94
2023/05/02 08:27:06;;;;;;;3.60;2.15;;;;;;;;;;10093833;23;20022;-93
2023/05/02 08:31:09;;;;;;;4.05;2.47;;;;;;;;;;10087834;23;20398;-92
2023/05/02 08:35:18;;;;;;;6.68;2.30;;;;;;;;;;10104960;23;20459;-93
2023/05/02 08:39:28;;;;;;;4.82;2.40;;;;;;;;;;10063735;23;20030;-94
2023/05/02 08:43:34;;;;;;;4.40;2.40;;;;;;;;;;10062902;23;20384;-92
2023/05/02 08:47:43;;;;;;;5.95;2.50;;;;;;;;;;10088990;23;20113;-93
2023/05/02 08:56:50;;;;;;;5.32;2.35;;;;;;;;;;10085411;23;20097;-90
2023/05/02 09:01:01;;;;;;;6.07;2.53;;;;;;;;;;10085144;23;20031;-92
2023/05/02 09:05:08;;;;;;;5.28;2.35;;;;;;;;;;10101305;23;20023;-91
2023/05/02 09:09:27;;;;;;;7.28;2.40;;;;;;;;;;10084431;23;20049;-91
2023/05/02 09:13:34;;;;;;;3.67;2.20;;;;;;;;;;10058708;23;20108;-92
2023/05/02 09:17:42;;;;;;;8.05;2.67;;;;;;;;;;10103160;23;20018;-92
2023/05/02 09:21:45;;;;;;;5.20;2.60;;;;;;;;;;10089426;23;20030;-92
2023/05/02 09:25:51;;;;;;;4.65;2.47;;;;;;;;;;10088268;23;20026;-92
2023/05/02 09:30:18;;;;;;;4.43;2.30;;;;;;;;;;10087251;23;20604;-91
2023/05/02 09:34:22;;;;;;;3.92;2.60;;;;;;;;;;10086137;23;20054;-91
2023/05/02 09:38:25;;;;;;;4.00;2.65;;;;;;;;;;10061749;23;20410;-91
2023/05/02 09:42:32;;;;;;;7.20;2.65;;;;;;;;;;10087262;23;20154;-91
2023/05/02 09:46:41;;;;;;;3.50;2.45;;;;;;;;;;10103798;23;20042;-89
2023/05/02 09:50:46;;;;;;;4.95;2.50;;;;;;;;;;10062062;23;20037;-91
2023/05/02 09:54:51;;;;;;;3.75;2.55;;;;;;;;;;10086314;23;20069;-91
2023/05/02 09:59:14;;;;;;;5.85;2.90;;;;;;;;;;10087458;23;20517;-90
2023/05/02 10:03:18;;;;;;;3.65;2.40;;;;;;;;;;10087768;23;20054;-91
2023/05/02 10:07:22;;;;;;;8.77;3.13;;;;;;;;;;10087351;23;20022;-90
2023/05/02 10:11:26;;;;;;;4.57;3.00;;;;;;;;;;10087009;23;20027;-91
2023/05/02 10:15:33;;;;;;;3.80;2.80;;;;;;;;;;10084331;23;20044;-90
2023/05/02 10:19:48;;;;;;;6.63;2.85;;;;;;;;;;10101530;23;20447;-88
2023/05/02 10:23:52;;;;;;;5.65;3.30;;;;;;;;;;10101965;23;20030;-89
2023/05/02 10:27:58;;;;;;;3.83;2.83;;;;;;;;;;10089487;23;20050;-90
2023/05/02 10:32:04;;;;;;;4.20;2.83;;;;;;;;;;10106747;23;20436;-90
2023/05/02 10:36:09;;;;;;;7.00;3.25;;;;;;;;;;10065606;23;20022;-90
2023/05/02 10:40:13;;;;;;;6.00;3.70;;;;;;;;;;10091532;23;20098;-90
2023/05/02 10:44:16;;;;;;;6.03;3.22;;;;;;;;;;10090947;23;20063;-90
2023/05/02 10:48:23;;;;;;;10.70;3.53;;;;;;;;;;10057181;23;20026;-91
2023/05/02 10:52:29;;;;;;;5.38;3.22;;;;;;;;;;10086490;23;20042;-90
2023/05/02 10:56:32;;;;;;;6.72;3.33;;;;;;;;;;10085506;23;20042;-90
2023/05/02 11:00:35;;;;;;;6.55;3.85;;;;;;;;;;10085646;23;20834;-90
2023/05/02 11:05:02;;;;;;;6.40;3.67;;;;;;;;;;10088514;23;20058;-91
2023/05/02 11:09:34;;;;;;;6.38;3.95;;;;;;;;;;10103637;23;20053;-90
2023/05/02 11:13:52;;;;;;;6.50;3.65;;;;;;;;;;10087186;23;20455;-91
2023/05/02 11:18:01;;;;;;;6.47;3.72;;;;;;;;;;10084352;23;20130;-91
2023/05/02 11:22:33;;;;;;;8.85;4.03;;;;;;;;;;10086822;23;20029;-90
2023/05/02 11:26:36;;;;;;;7.75;3.95;;;;;;;;;;10105606;23;20053;-94
2023/05/02 11:30:41;;;;;;;5.78;3.83;;;;;;;;;;10090048;23;20451;-91
2023/05/02 11:34:45;;;;;;;7.28;3.70;;;;;;;;;;10090376;23;20066;-91
2023/05/02 11:38:50;;;;;;;5.97;3.40;;;;;;;;;;10091731;23;20332;-94
2023/05/02 11:42:53;;;;;;;4.90;3.63;;;;;;;;;;10090464;23;20018;-92
2023/05/02 11:46:59;;;;;;;7.28;3.85;;;;;;;;;;10087135;23;20032;-90
2023/05/02 11:51:04;;;;;;;8.45;4.13;;;;;;;;;;10089734;23;20042;-90
2023/05/02 11:55:14;;;;;;;6.57;3.30;;;;;;;;;;10088813;23;20031;-92
2023/05/02 11:59:18;;;;;;;7.63;3.40;;;;;;;;;;10089096;23;20033;-92
2023/05/02 12:03:28;;;;;;;6.22;3.70;;;;;;;;;;10091556;23;20053;-92
2023/05/02 12:07:38;;;;;;;5.50;3.67;;;;;;;;;;10099544;23;20026;-88
2023/05/02 12:11:44;;;;;;;15.30;4.30;;;;;;;;;;10083228;23;20468;-88
2023/05/02 12:15:49;;;;;;;5.68;4.10;;;;;;;;;;10100422;23;20026;-88
2023/05/02 12:19:52;;;;;;;6.00;4.20;;;;;;;;;;10081334;23;20139;-88
2023/05/02 12:23:55;;;;;;;5.85;3.88;;;;;;;;;;10084877;23;20097;-88
2023/05/02 12:28:05;;;;;;;9.00;4.00;;;;;;;;;;10084381;23;20026;-88
2023/05/02 12:32:09;;;;;;;7.07;3.60;;;;;;;;;;10059245;23;20058;-87
2023/05/02 12:36:12;;;;;;;8.75;4.18;;;;;;;;;;10085461;23;20026;-88
2023/05/02 12:40:17;;;;;;;7.97;3.90;;;;;;;;;;10084357;23;20018;-88
2023/05/02 12:44:37;;;;;;;7.15;3.75;;;;;;;;;;10084521;23;20355;-87
2023/05/02 12:48:40;;;;;;;9.47;4.37;;;;;;;;;;10082299;23;20101;-89
2023/05/02 12:52:53;;;;;;;10.45;4.57;;;;;;;;;;10082325;23;20145;-89
2023/05/02 12:56:57;;;;;;;7.65;4.22;;;;;;;;;;10100148;23;20022;-88
2023/05/02 13:01:03;;;;;;;8.15;3.60;;;;;;;;;;10083241;23;20026;-88
2023/05/02 13:05:14;;;;;;;7.90;3.72;;;;;;;;;;10101700;23;20022;-88
2023/05/02 13:09:19;;;;;;;10.45;3.67;;;;;;;;;;10102770;23;20029;-90
2023/05/02 13:13:22;;;;;;;7.78;4.15;;;;;;;;;;10090250;23;20440;-87
2023/05/02 13:17:27;;;;;;;9.65;4.13;;;;;;;;;;10088823;23;20054;-91
2023/05/02 13:21:30;;;;;;;13.00;4.55;;;;;;;;;;10086553;23;20072;-87
2023/05/02 13:25:33;;;;;;;10.23;3.55;;;;;;;;;;10086155;23;20145;-87
2023/05/02 13:29:36;;;;;;;8.52;3.88;;;;;;;;;;10086044;23;20454;-85
2023/05/02 13:33:40;;;;;;;13.02;4.40;;;;;;;;;;10085053;23;20027;-85
2023/05/02 13:37:43;;;;;;;5.88;3.55;;;;;;;;;;10087181;23;20074;-84
2023/05/02 13:41:46;;;;;;;8.23;3.75;;;;;;;;;;10086725;23;20026;-88
2023/05/02 13:45:51;;;;;;;11.25;4.40;;;;;;;;;;10085449;23;20080;-89
2023/05/02 13:49:55;;;;;;;7.68;4.90;;;;;;;;;;10087596;23;20088;-90
2023/05/02 13:53:58;;;;;;;8.48;5.20;;;;;;;;;;10084218;23;20389;-88
2023/05/02 13:58:01;;;;;;;9.48;4.10;;;;;;;;;;10084785;23;20419;-87
2023/05/02 14:02:04;;;;;;;8.70;3.55;;;;;;;;;;10082518;23;20034;-88
2023/05/02 14:06:09;;;;;;;6.55;3.80;;;;;;;;;;10084181;23;20026;-89
2023/05/02 14:10:12;;;;;;;9.00;3.47;;;;;;;;;;10083614;23;20332;-92
2023/05/02 14:14:16;;;;;;;7.35;3.53;;;;;;;;;;10089864;23;20022;-92
2023/05/02 14:18:19;;;;;;;4.15;2.70;;;;;;;;;;10090190;23;20022;-93
2023/05/02 14:22:24;;;;;;;5.45;3.25;;;;;;;;;;10068305;23;20026;-93
2023/05/02 14:26:27;;;;;;;7.50;3.30;;;;;;;;;;10094398;23;20022;-94
2023/05/02 14:30:30;;;;;;;4.32;2.80;;;;;;;;;;10098272;23;20026;-91
2023/05/02 14:34:33;;;;;;;6.10;2.80;;;;;;;;;;10087598;23;20023;-91
2023/05/02 14:38:37;;;;;;;6.15;3.00;;;;;;;;;;10065205;23;20045;-90
2023/05/02 14:42:40;;;;;;;6.00;3.20;;;;;;;;;;10089794;23;20027;-92
2023/05/02 14:46:43;;;;;;;9.70;4.68;;;;;;;;;;10088068;23;20347;-91
2023/05/02 14:50:46;;;;;;;5.82;3.42;;;;;;;;;;10089429;23;20347;-91
2023/05/02 14:54:51;;;;;;;8.13;3.47;;;;;;;;;;10089360;23;20085;-89
2023/05/02 14:58:55;;;;;;;5.15;2.92;;;;;;;;;;10089652;23;20533;-92
2023/05/02 15:02:58;;;;;;;6.18;3.53;;;;;;;;;;10090623;23;20031;-89
2023/05/02 15:07:01;;;;;;;8.82;3.47;;;;;;;;;;10090800;23;20145;-90
2023/05/02 15:11:06;;;;;;;6.85;3.53;;;;;;;;;;10092447;23;20505;-92
2023/05/02 15:15:11;;;;;;;7.60;3.53;;;;;;;;;;10094384;23;20113;-93
2023/05/02 15:19:14;;;;;;;5.72;3.03;;;;;;;;;;10094683;23;20074;-93
2023/05/02 15:23:18;;;;;;;5.15;3.15;;;;;;;;;;10094343;23;20022;-92
2023/05/02 15:27:24;;;;;;;11.07;4.65;;;;;;;;;;10094411;23;20022;-92
2023/05/02 15:31:27;;;;;;;9.65;4.50;;;;;;;;;;10112316;23;20105;-92
2023/05/02 15:35:30;;;;;;;8.38;4.22;;;;;;;;;;10103832;23;20022;-92
2023/05/02 15:39:35;;;;;;;12.32;4.85;;;;;;;;;;10103535;23;20022;-91
2023/05/02 15:43:39;;;;;;;11.77;4.57;;;;;;;;;;10105915;23;20050;-91
2023/05/02 15:47:43;;;;;;;8.82;4.80;;;;;;;;;;10110946;23;20018;-91
2023/05/02 15:51:47;;;;;;;8.25;4.78;;;;;;;;;;10103973;23;20033;-92
2023/05/02 15:55:51;;;;;;;16.58;6.68;;;;;;;;;;10103627;23;20029;-91
2023/05/02 15:59:56;;;;;;;10.07;5.50;;;;;;;;;;10103235;23;20340;-92
2023/05/02 16:04:17;;;;;;;8.55;5.72;;;;;;;;;;10076855;23;20030;-92
2023/05/02 16:08:23;;;;;;;12.07;5.18;;;;;;;;;;10103145;23;20676;-89
2023/05/02 16:12:26;;;;;;;7.07;3.83;;;;;;;;;;10083239;23;20050;-88
2023/05/02 16:16:31;;;;;;;6.53;4.38;;;;;;;;;;10084543;23;20410;-89
2023/05/02 16:20:35;;;;;;;10.50;4.88;;;;;;;;;;10085240;23;20029;-87
2023/05/02 16:24:38;;;;;;;16.80;9.40;;;;;;;;;;10085210;23;20022;-89
2023/05/02 16:28:41;;;;;;;14.80;6.78;;;;;;;;;;10085169;23;20045;-90
2023/05/02 16:32:48;;;;;;;11.40;7.38;;;;;;;;;;10083807;23;20463;-88
2023/05/02 16:36:52;;;;;;;11.93;6.15;;;;;;;;;;10058346;23;20070;-88
2023/05/02 16:40:56;;;;;;;11.77;6.97;;;;;;;;;;10084413;23;20646;-88
2023/05/02 16:45:04;;;;;;;11.32;6.43;;;;;;;;;;10084900;23;20141;-89
2023/05/02 16:49:12;;;;;;;10.05;6.25;;;;;;;;;;10099794;23;20023;-88
2023/05/02 16:53:16;;;;;;;10.27;6.15;;;;;;;;;;10058268;23;20030;-89
2023/05/02 16:57:20;;;;;;;10.02;6.03;;;;;;;;;;10085122;23;20349;-90
2023/05/02 17:01:23;;;;;;;16.10;7.93;;;;;;;;;;10058421;23;20427;-89
2023/05/02 17:05:27;;;;;;;17.75;13.25;;;;;;;;;;10084839;23;20022;-89
2023/05/02 17:09:30;;;;;;;19.30;10.52;;;;;;;;;;10085187;23;20026;-90
2023/05/02 17:13:36;;;;;;;13.38;9.00;;;;;;;;;;10084516;23;20045;-89
2023/05/02 17:17:39;;;;;;;15.55;10.75;;;;;;;;;;10100861;23;20029;-89
2023/05/02 17:21:47;;;;;;;18.85;11.50;;;;;;;;;;10084953;23;20026;-89
2023/05/02 17:25:52;;;;;;;15.23;10.30;;;;;;;;;;10101585;23;20471;-90
2023/05/02 17:29:55;;;;;;;15.85;8.98;;;;;;;;;;10084683;23;20745;-88
2023/05/02 17:33:58;;;;;;;18.60;10.57;;;;;;;;;;10088212;23;20022;-89
2023/05/02 17:38:03;;;;;;;19.00;10.45;;;;;;;;;;10091106;23;20026;-88
2023/05/02 17:42:06;;;;;;;21.23;11.93;;;;;;;;;;10093999;23;20343;-88
2023/05/02 17:46:12;;;;;;;26.23;14.55;;;;;;;;;;10092111;23;20018;-89
2023/05/02 17:50:29;;;;;;;28.38;13.98;;;;;;;;;;10109223;23;20019;-90
2023/05/02 17:54:35;;;;;;;22.40;14.23;;;;;;;;;;10109022;23;20098;-90
2023/05/02 17:58:38;;;;;;;18.15;11.55;;;;;;;;;;10109037;23;20022;-88
2023/05/02 18:02:42;;;;;;;17.50;10.63;;;;;;;;;;10090229;23;20089;-89
2023/05/02 18:06:46;;;;;;;16.10;10.70;;;;;;;;;;10091433;23;20018;-88
2023/05/02 18:10:51;;;;;;;17.52;10.40;;;;;;;;;;10091637;23;20033;-89
2023/05/02 18:14:56;;;;;;;15.88;10.10;;;;;;;;;;10105757;23;20044;-88
2023/05/02 18:19:00;;;;;;;14.60;8.45;;;;;;;;;;10091154;23;20052;-90
2023/05/02 18:23:04;;;;;;;16.27;9.82;;;;;;;;;;10091750;23;20089;-90
2023/05/02 18:27:09;;;;;;;12.80;8.70;;;;;;;;;;10091860;23;20026;-88
2023/05/02 18:31:16;;;;;;;15.20;9.52;;;;;;;;;;10108996;23;20381;-89
2023/05/02 18:35:20;;;;;;;21.23;11.70;;;;;;;;;;10092257;23;20049;-89
2023/05/02 18:39:24;;;;;;;13.70;9.77;;;;;;;;;;10091410;23;20141;-88
2023/05/02 18:43:33;;;;;;;12.85;8.48;;;;;;;;;;10092013;23;20022;-90
2023/05/02 18:47:37;;;;;;;28.63;13.27;;;;;;;;;;10108003;23;20136;-91
2023/05/02 18:51:42;;;;;;;21.35;13.95;;;;;;;;;;10091672;23;20081;-89
2023/05/02 18:55:46;;;;;;;26.30;16.80;;;;;;;;;;10091565;23;20018;-89
2023/05/02 18:59:58;;;;;;;26.27;15.82;;;;;;;;;;10090900;23;20027;-90
2023/05/02 19:04:03;;;;;;;38.58;20.85;;;;;;;;;;10114471;23;20041;-90
2023/05/02 19:08:07;;;;;;;28.33;16.95;;;;;;;;;;10091235;23;20022;-88
2023/05/02 19:12:11;;;;;;;22.23;14.55;;;;;;;;;;10091365;23;20029;-88
2023/05/02 19:16:20;;;;;;;29.00;16.60;;;;;;;;;;10090121;23;20026;-88
2023/05/02 19:20:24;;;;;;;22.92;13.00;;;;;;;;;;10090530;23;20472;-88
2023/05/02 19:24:31;;;;;;;17.40;11.45;;;;;;;;;;10090987;23;20022;-89
2023/05/02 19:28:35;;;;;;;22.05;13.27;;;;;;;;;;10107375;23;20458;-88
2023/05/02 19:32:42;;;;;;;19.55;12.35;;;;;;;;;;10065701;23;20025;-89
2023/05/02 19:36:46;;;;;;;23.77;14.07;;;;;;;;;;10091632;23;20022;-89
2023/05/02 19:40:52;;;;;;;30.50;18.25;;;;;;;;;;10091595;23;20448;-90
2023/05/02 19:44:59;;;;;;;18.23;11.13;;;;;;;;;;10107582;23;20347;-89
2023/05/02 19:49:09;;;;;;;15.88;9.30;;;;;;;;;;10107394;23;20070;-88
2023/05/02 19:53:14;;;;;;;14.77;8.57;;;;;;;;;;10107169;23;20029;-88
2023/05/02 19:57:20;;;;;;;14.65;8.80;;;;;;;;;;10089821;23;20018;-89
2023/05/02 20:01:25;;;;;;;19.27;9.38;;;;;;;;;;10100527;23;20102;-88
2023/05/02 20:05:31;;;;;;;14.10;8.20;;;;;;;;;;10107865;23;20026;-90
2023/05/02 20:09:44;;;;;;;16.27;8.45;;;;;;;;;;10093250;23;20093;-89
2023/05/02 20:13:47;;;;;;;15.68;8.32;;;;;;;;;;10107365;23;20321;-90
2023/05/02 20:17:51;;;;;;;13.55;9.18;;;;;;;;;;10090674;23;20097;-88
2023/05/02 20:21:56;;;;;;;14.00;9.63;;;;;;;;;;10090307;23;20086;-89
2023/05/02 20:26:06;;;;;;;19.77;11.02;;;;;;;;;;10107238;23;20029;-89
2023/05/02 20:30:13;;;;;;;29.85;11.35;;;;;;;;;;10106767;23;20452;-90
2023/05/02 20:34:17;;;;;;;20.80;12.57;;;;;;;;;;10106978;23;20018;-88
2023/05/02 20:38:26;;;;;;;21.20;13.13;;;;;;;;;;10090701;23;20057;-88
2023/05/02 20:42:34;;;;;;;20.20;12.77;;;;;;;;;;10106530;23;20026;-88
2023/05/02 20:46:39;;;;;;;26.42;14.68;;;;;;;;;;10106925;23;20343;-87
2023/05/02 20:50:42;;;;;;;20.63;13.77;;;;;;;;;;10090917;23;20548;-90
2023/05/02 20:54:47;;;;;;;20.30;13.52;;;;;;;;;;10090548;23;20208;-89
2023/05/02 20:58:50;;;;;;;22.05;14.70;;;;;;;;;;10090244;23;20187;-87
2023/05/02 21:02:53;;;;;;;27.17;15.38;;;;;;;;;;10090586;23;20030;-87
2023/05/02 21:06:58;;;;;;;24.55;14.95;;;;;;;;;;10091086;23;20042;-89
2023/05/02 21:11:03;;;;;;;24.63;15.85;;;;;;;;;;10089735;23;20033;-88
2023/05/02 21:15:07;;;;;;;23.48;14.02;;;;;;;;;;10092004;23;20077;-89
2023/05/02 21:19:10;;;;;;;20.15;13.20;;;;;;;;;;10092387;23;20023;-86
2023/05/02 21:23:14;;;;;;;23.98;15.38;;;;;;;;;;10092295;23;20098;-88
2023/05/02 21:27:22;;;;;;;27.30;17.77;;;;;;;;;;10093505;23;20041;-88
2023/05/02 21:31:26;;;;;;;24.88;15.70;;;;;;;;;;10110258;23;20371;-90
2023/05/02 21:35:32;;;;;;;27.00;17.20;;;;;;;;;;10094935;23;20044;-90
2023/05/02 21:39:35;;;;;;;31.05;18.35;;;;;;;;;;10094670;23;20023;-91
2023/05/02 21:43:40;;;;;;;25.25;16.42;;;;;;;;;;10094944;23;20128;-90
2023/05/02 21:47:43;;;;;;;36.88;19.05;;;;;;;;;;10068500;23;20045;-89
2023/05/02 21:51:46;;;;;;;31.70;17.15;;;;;;;;;;10093974;23;20580;-90
2023/05/02 21:55:49;;;;;;;28.20;16.55;;;;;;;;;;10093922;23;20033;-90
2023/05/02 21:59:54;;;;;;;26.52;15.65;;;;;;;;;;10093766;23;20097;-89
2023/05/02 22:03:57;;;;;;;22.05;14.70;;;;;;;;;;10045761;23;20022;-89
2023/05/02 22:08:00;;;;;;;21.05;14.20;;;;;;;;;;10046279;23;20023;-89
2023/05/02 22:12:04;;;;;;;26.88;16.40;;;;;;;;;;10045970;23;20023;-89
2023/05/02 22:16:09;;;;;;;25.67;14.98;;;;;;;;;;10045093;23;20437;-89
2023/05/02 22:20:13;;;;;;;27.42;16.15;;;;;;;;;;10044817;23;20031;-89
2023/05/02 22:24:16;;;;;;;21.77;14.68;;;;;;;;;;10044795;23;20026;-89
2023/05/02 22:28:19;;;;;;;24.27;14.05;;;;;;;;;;10045027;23;20374;-89
2023/05/02 22:32:24;;;;;;;23.15;14.70;;;;;;;;;;10045069;23;20090;-89
2023/05/02 22:36:27;;;;;;;22.45;14.43;;;;;;;;;;10044027;23;20026;-87
2023/05/02 22:40:31;;;;;;;26.25;16.17;;;;;;;;;;10044667;23;20070;-88
2023/05/02 22:44:34;;;;;;;26.00;16.63;;;;;;;;;;10044598;23;20340;-87
2023/05/02 22:48:38;;;;;;;25.95;15.75;;;;;;;;;;10044434;23;20019;-89
2023/05/02 22:52:41;;;;;;;25.65;15.63;;;;;;;;;;10044048;23;20019;-89
2023/05/02 22:56:44;;;;;;;20.75;13.38;;;;;;;;;;10043985;23;20448;-89
2023/05/02 23:00:47;;;;;;;23.08;14.77;;;;;;;;;;10054616;23;20094;-89
2023/05/02 23:04:52;;;;;;;24.67;15.55;;;;;;;;;;10092284;23;20023;-89
2023/05/02 23:08:55;;;;;;;24.05;16.33;;;;;;;;;;10092071;23;20026;-90
2023/05/02 23:12:58;;;;;;;24.00;14.90;;;;;;;;;;10091579;23;20452;-89
2023/05/02 23:17:02;;;;;;;21.65;15.38;;;;;;;;;;10091605;23;20029;-89
2023/05/02 23:21:14;;;;;;;25.30;16.05;;;;;;;;;;10091125;23;20019;-89
2023/05/02 23:25:18;;;;;;;25.23;17.10;;;;;;;;;;10107559;23;20018;-89
2023/05/02 23:29:21;;;;;;;26.35;15.95;;;;;;;;;;10092021;23;20101;-90
2023/05/02 23:33:25;;;;;;;30.52;17.67;;;;;;;;;;10091862;23;20467;-91
2023/05/02 23:37:30;;;;;;;32.17;17.77;;;;;;;;;;10091192;23;20462;-89
2023/05/02 23:41:34;;;;;;;29.63;17.63;;;;;;;;;;10091692;23;20023;-91
2023/05/02 23:45:37;;;;;;;37.15;19.63;;;;;;;;;;10090900;23;20022;-89
2023/05/02 23:49:40;;;;;;;37.50;19.73;;;;;;;;;;10091595;23;20026;-90
2023/05/02 23:53:44;;;;;;;36.13;18.73;;;;;;;;;;10091714;23;20025;-90
2023/05/02 23:57:47;;;;;;;37.72;21.73;;;;;;;;;;10091284;23;20355;-91
